Ambrose, Georgia
Current Conditions -  °F | °C
As of 8:55 PM on Friday 31 Oct 2014 (Local Time) from KDQH Reporting Station
Clear Clear  
Wind Chill: 63°   Ceiling: Unl
Heat Index: 63°   Visibility: 10mi
Dew Point: 41°   Wind: 5mph
Humidity: 45%   Direction: 340°NNW
Pressure: 29.89"   Gusts: NA
Location:  31.59°N, 83.01°W
Report Text: KDQH 010055Z AUTO 34004KT 10SM CLR 17/05 A2989 RMK AO2
Loading
Personal Weather Stations






























Interactive Weather Map
Tropical Storm Tracking
New forecast layout! Learn more

10-Day Weather Forecast

Advertisements
Track Severe Weather on mobile